Nearby METAR Reports



KADS - Dallas/Addison, Texas, USA
Distance from station: SSW 10mi, 16km
Updated: Sat, 24-Feb-2024 11:15pm CST
Clear
Clear
 Wind from S
Wind: S 9 mph , 15 km/h
Temperature: 66°F , 19°C
Dew Point: 34°F , 1°C
Humidity: 30%
Barometer: 30.05 inHg , 1017.6 hPa
Clouds: Clear
Visibility: 10 miles , 16 km
2024/02/25 05:15 KADS 250515Z AUTO 18008KT 10SM CLR 19/01 A3005 RMK AO2 T01870006 FZRANO
KTKI - Mckinney, Texas, USA
Distance from station: ENE 11mi, 18km
Updated: Sat, 24-Feb-2024 10:53pm CST
Clear
Clear
 Wind from SSE
Wind: SSE 6 mph , 9 km/h
Temperature: 55°F , 13°C
Dew Point: 37°F , 3°C
Humidity: 51%
Barometer: 30.03 inHg , 1016.9 hPa
Clouds: Clear
Visibility: 10 miles , 16 km
2024/02/25 04:53 KTKI 250453Z AUTO 15005KT 10SM CLR 13/03 A3003 RMK AO2 SLP172 T01330028
 
KDAL - Dallas/Love Fld, Texas, USA
Distance from station: SSW 18mi, 30km
Updated: Sat, 24-Feb-2024 10:53pm CST
Few Clouds
Few Clouds
 Wind from S
Wind: S 15 mph , 24 km/h, Gust: 25 mph , 41 km/h
Temperature: 68°F , 20°C
Dew Point: 36°F , 2°C
Humidity: 30%
Barometer: 30.03 inHg , 1016.9 hPa
Clouds: Few Clouds
Visibility: 10 miles , 16 km
Cloud details: Few Clouds 25000 ft
2024/02/25 04:53 KDAL 250453Z 18013G22KT 10SM FEW250 20/02 A3003 RMK AO2 SLP163 T02000022 $
KDFW - Dallas/Ft Worth, Texas, USA
Distance from station: SW 21mi, 34km
Updated: Sat, 24-Feb-2024 10:53pm CST
Few Clouds
Few Clouds
 Wind from S
Wind: S 12 mph , 19 km/h
Temperature: 63°F , 17°C
Dew Point: 37°F , 3°C
Humidity: 39%
Barometer: 30.02 inHg , 1016.6 hPa
Clouds: Few Clouds
Visibility: 10 miles , 16 km
Cloud details: Few Clouds 25000 ft
2024/02/25 04:53 KDFW 250453Z 19010KT 10SM FEW250 17/03 A3002 RMK AO2 SLP159 T01720033
 
KF46 - Rockwall, Texas, USA
Distance from station: ESE 22mi, 35km
Updated: Sat, 24-Feb-2024 11:15pm CST
Clear
Clear
 Wind from S
Wind: S 8 mph , 13 km/h
Temperature: 63°F , 17°C
Dew Point: 36°F , 2°C
Humidity: 37%
Barometer: 30.05 inHg , 1017.6 hPa
Clouds: Clear
Visibility: 10 miles , 16 km
2024/02/25 05:15 KF46 250515Z AUTO 18007KT 10SM CLR 17/02 A3005 RMK AO2 T01670020
KDTO - Denton, Texas, USA
Distance from station: WNW 27mi, 43km
Updated: Sat, 24-Feb-2024 10:53pm CST
Clear
Clear
 Wind from S
Wind: S 10 mph , 17 km/h
Temperature: 61°F , 16°C
Dew Point: 39°F , 4°C
Humidity: 45%
Barometer: 30.02 inHg , 1016.6 hPa
Clouds: Clear
Visibility: 10 miles , 16 km
2024/02/25 04:53 KDTO 250453Z AUTO 18009KT 10SM CLR 16/04 A3002 RMK AO2 SLP159 T01560039
 
KHQZ - Mesquite, Texas, USA
Distance from station: SSE 28mi, 44km
Updated: Sat, 24-Feb-2024 11:15pm CST
Clear
Clear
 Wind from SSE
Wind: SSE 6 mph , 9 km/h
Temperature: 54°F , 12°C
Dew Point: 39°F , 4°C
Humidity: 58%
Barometer: 30.05 inHg , 1017.6 hPa
Clouds: Clear
Visibility: 10 miles , 16 km
2024/02/25 05:15 KHQZ 250515Z AUTO 16005KT 10SM CLR 12/04 A3005 RMK AO1 T01170036
KRBD - Dallas/Redbird, Texas, USA
Distance from station: SSW 30mi, 48km
Updated: Sat, 24-Feb-2024 10:53pm CST
Clear
Clear
 Wind from S
Wind: S 10 mph , 17 km/h
Temperature: 63°F , 17°C
Dew Point: 37°F , 3°C
Humidity: 39%
Barometer: 30.03 inHg , 1016.9 hPa
Clouds: Clear
Visibility: 10 miles , 16 km
2024/02/25 04:53 KRBD 250453Z AUTO 19009KT 10SM CLR 17/03 A3003 RMK AO2 SLP165 T01720028
 
KGPM - Grand Prairie, Texas, USA
Distance from station: SSW 33mi, 53km
Updated: Sat, 24-Feb-2024 11:15pm CST
Clear
Clear
 Wind from S
Wind: S 7 mph , 11 km/h
Temperature: 64°F , 18°C
Dew Point: 36°F , 2°C
Humidity: 34%
Barometer: 30.05 inHg , 1017.6 hPa
Clouds: Clear
Visibility: 10 miles , 16 km
2024/02/25 05:15 KGPM 250515Z AUTO 19006KT 10SM CLR 18/02 A3005 RMK AO2 T01750016
KAFW - Ft Worth/Allianc, Texas, USA
Distance from station: WSW 34mi, 55km
Updated: Sat, 24-Feb-2024 10:53pm CST
Few Clouds
Few Clouds
 Wind from S
Wind: S 12 mph , 19 km/h
Temperature: 63°F , 17°C
Dew Point: 37°F , 3°C
Humidity: 39%
Barometer: 30.01 inHg , 1016.3 hPa
Clouds: Few Clouds
Visibility: 10 miles , 16 km
Cloud details: Few Clouds 25000 ft
2024/02/25 04:53 KAFW 250453Z 18010KT 10SM FEW250 17/03 A3001 RMK AO2 SLP155 T01720033
 
KLNC - Lancaster, Texas, USA
Distance from station: S 36mi, 58km
Updated: Sat, 24-Feb-2024 11:15pm CST
Clear
Clear
 Wind from calm
Wind: Calm
Temperature: 57°F , 14°C
Dew Point: 37°F , 3°C
Humidity: 48%
Barometer: 30.06 inHg , 1017.9 hPa
Clouds: Clear
Visibility: 10 miles , 16 km
2024/02/25 05:15 KLNC 250515Z AUTO 00000KT 10SM CLR 14/03 A3006 RMK AO2 T01350027
KGKY - Arlington, Texas, USA
Distance from station: SSW 36mi, 59km
Updated: Sat, 24-Feb-2024 10:53pm CST
Clear
Clear
 Wind from S
Wind: S 9 mph , 15 km/h
Temperature: 63°F , 17°C
Dew Point: 37°F , 3°C
Humidity: 39%
Barometer: 30.03 inHg , 1016.9 hPa
Clouds: Clear
Visibility: 10 miles , 16 km
2024/02/25 04:53 KGKY 250453Z AUTO 17008KT 10SM CLR 17/03 A3003 RMK AO2 SLP164 T01720033
 
KTRL - Terrell, Texas, USA
Distance from station: SE 39mi, 63km
Updated: Sat, 24-Feb-2024 10:53pm CST
Clear
Clear
 Wind from S
Wind: S 5 mph , 7 km/h
Temperature: 57°F , 14°C
Dew Point: 37°F , 3°C
Humidity: 48%
Barometer: 30.06 inHg , 1017.9 hPa
Clouds: Clear
Visibility: 10 miles , 16 km
2024/02/25 04:53 KTRL 250453Z AUTO 17004KT 10SM CLR 14/03 A3006 RMK AO2 SLP174 T01390028
KGVT - Greenville/Major, Texas, USA
Distance from station: E 40mi, 64km
Updated: Sat, 24-Feb-2024 11:15pm CST
Clear
Clear
 Wind from S
Wind: S 7 mph , 11 km/h
Temperature: 54°F , 12°C
Dew Point: 37°F , 3°C
Humidity: 54%
Barometer: 30.05 inHg , 1017.6 hPa
Clouds: Clear
Visibility: 10 miles , 16 km
2024/02/25 05:15 KGVT 250515Z AUTO 17006KT 10SM CLR 12/03 A3005 RMK AO2 TSNO T01230035
 
KFTW - Fort Worth, Texas, USA
Distance from station: WSW 40mi, 65km
Updated: Sat, 24-Feb-2024 10:53pm CST
Clear
Clear
 Wind from S
Wind: S 15 mph , 24 km/h
Temperature: 63°F , 17°C
Dew Point: 37°F , 3°C
Humidity: 39%
Barometer: 30.02 inHg , 1016.6 hPa
Clouds: Clear
Visibility: 10 miles , 16 km
2024/02/25 04:53 KFTW 250453Z 17013KT 10SM CLR 17/03 A3002 RMK AO2 SLP159 T01720033
KGYI - Sherman/Denison, Texas, USA
Distance from station: N 43mi, 69km
Updated: Sat, 24-Feb-2024 11:15pm CST
Clear
Clear
 Wind from S
Wind: S 14 mph , 22 km/h, Gust: 20 mph , 31 km/h
Temperature: 61°F , 16°C
Dew Point: 36°F , 2°C
Humidity: 39%
Barometer: 30.02 inHg , 1016.6 hPa
Clouds: Clear
Visibility: 10 miles , 16 km
2024/02/25 05:15 KGYI 250515Z AUTO 18012G17KT 10SM CLR 16/02 A3002 RMK AO2 T01630020 TSNO
 
KNFW - Fort Worth Nas, Texas, USA
Distance from station: WSW 45mi, 73km
Updated: Sat, 24-Feb-2024 10:52pm CST
Clear
Clear
 Wind from S
Wind: S 13 mph , 20 km/h
Temperature: 63°F , 17°C
Dew Point: 37°F , 3°C
Humidity: 39%
Barometer: 30.03 inHg , 1016.9 hPa
Clouds: Clear
Visibility: 10 miles , 16 km
2024/02/25 04:52 KNFW 250452Z AUTO 18011KT 10SM CLR 17/03 A3003 RMK AO2 SLP151 T01720028 $
KGLE - Gainesville, Texas, USA
Distance from station: NW 46mi, 74km
Updated: Sat, 24-Feb-2024 11:15pm CST
Clear
Clear
 Wind from S
Wind: S 6 mph , 9 km/h
Temperature: 55°F , 13°C
Dew Point: 37°F , 3°C
Humidity: 51%
Barometer: 30.02 inHg , 1016.6 hPa
Clouds: Clear
Visibility: 10 miles , 16 km
2024/02/25 05:15 KGLE 250515Z AUTO 18005KT 10SM CLR 13/03 A3002 RMK AO2 T01250025
 
KJWY - Midlothian/Wax, Texas, USA
Distance from station: SSW 46mi, 74km
Updated: Sat, 24-Feb-2024 11:15pm CST
Partly cloudy
Partly cloudy
 Wind from S
Wind: S 5 mph , 7 km/h
Temperature: 55°F , 13°C
Dew Point: 41°F , 5°C
Humidity: 59%
Barometer: 30.08 inHg , 1018.6 hPa
Clouds: Partly cloudy
Visibility: 10 miles , 16 km
Cloud details: Partly cloudy 11000 ft
2024/02/25 05:15 KJWY 250515Z AUTO 17004KT 10SM SCT110 13/05 A3008 RMK AO2 T01260048
KFWS - Fort Worth/88d, Texas, USA
Distance from station: SW 49mi, 79km
Updated: Sat, 24-Feb-2024 11:15pm CST
Clear
Clear
 Wind from SSE
Wind: SSE 8 mph , 13 km/h
Temperature: 61°F , 16°C
Dew Point: 37°F , 3°C
Humidity: 42%
Barometer: 30.05 inHg , 1017.6 hPa
Clouds: Clear
Visibility: 10 miles , 16 km
2024/02/25 05:15 KFWS 250515Z AUTO 16007KT 10SM CLR 16/03 A3005 RMK AO2 T01650032